Aviation Digital Data Service (ADDS)

Output produced by METARs form (2029 UTC 27 February 2017)
found at http://aviationweather.gov/adds/metars/
 
KPBG 271737Z 2718/2818 23010G29KT P6SM BKN060 
     FM271900 23009KT P6SM BKN050 
     FM272200 21005KT P6SM BKN090 
     FM280000 14006KT P6SM BKN090 
     FM280100 VRB03KT P6SM SCT100 
     FM281600 13009KT P6SM SCT110